Time;durP1;ratioP1;P1;durP2;ratioP2;P2;SDS_P1;SDS_P2;PMS_P1;PMS_P2;Temp;Humidity;BMP_temperature;BMP_pressure;BME280_temperature;BME280_humidity;BME280_pressure;Samples;Min_cycle;Max_cycle;Signal;HPM_P1;HPM_P2
2022/03/13 00:00:53;;;;;;;;;;;;;;;9.95;63.58203;101486.2;;;;-80
2022/03/13 00:05:35;;;;;;;;;;;;;;;9.93;63.70117;101484.2;;;;-79
2022/03/13 00:08:21;;;;;;;14.7;7;;;;;;;;;;;;;-80
2022/03/13 00:10:33;;;;;;;;;;;;;;;9.91;63.63281;101485.7;;;;-80
2022/03/13 00:15:40;;;;;;;;;;;;;;;9.89;63.87305;101483.5;;;;-79
2022/03/13 00:20:35;;;;;;;;;;;;;;;9.86;63.66895;101491.6;;;;-80
2022/03/13 00:25:34;;;;;;;;;;;;;;;9.82;63.83008;101499.6;;;;-81
2022/03/13 00:30:35;;;;;;;;;;;;;;;9.79;63.91309;101498.1;;;;-81
2022/03/13 00:35:38;;;;;;;;;;;;;;;9.75;64.02051;101493.5;;;;-79
2022/03/13 00:38:13;;;;;;;12.6;6.4;;;;;;;;;;;;;-80
2022/03/13 00:40:33;;;;;;;;;;;;;;;9.72;63.96973;101494.6;;;;-79
2022/03/13 00:45:35;;;;;;;;;;;;;;;9.69;64.06543;101484.1;;;;-80
2022/03/13 00:50:36;;;;;;;;;;;;;;;9.66;63.90625;101489.7;;;;-81
2022/03/13 00:55:33;;;;;;;;;;;;;;;9.64;63.93555;101490.2;;;;-81
2022/03/13 01:00:33;;;;;;;;;;;;;;;9.62;64.41113;101484.5;;;;-81
2022/03/13 01:05:33;;;;;;;;;;;;;;;9.6;64.77441;101476.4;;;;-80
2022/03/13 01:08:14;;;;;;;9.6;5.3;;;;;;;;;;;;;-80
2022/03/13 01:10:35;;;;;;;;;;;;;;;9.61;64.65234;101479.3;;;;-79
2022/03/13 01:15:35;;;;;;;;;;;;;;;9.62;64.67676;101475.5;;;;-79
2022/03/13 01:20:33;;;;;;;;;;;;;;;9.64;64.84473;101470.7;;;;-80
2022/03/13 01:25:33;;;;;;;;;;;;;;;9.64;64.76855;101474.5;;;;-81
2022/03/13 01:30:33;;;;;;;;;;;;;;;9.63;64.92285;101470.5;;;;-78
2022/03/13 01:35:36;;;;;;;;;;;;;;;9.63;64.96582;101464.3;;;;-80
2022/03/13 01:38:17;;;;;;;9.8;4.8;;;;;;;;;;;;;-80
2022/03/13 01:40:34;;;;;;;;;;;;;;;9.6;64.96289;101456.3;;;;-81
2022/03/13 01:45:33;;;;;;;;;;;;;;;9.59;64.89355;101450.2;;;;-81
2022/03/13 01:50:36;;;;;;;;;;;;;;;9.58;65.25781;101461.6;;;;-81
2022/03/13 01:55:33;;;;;;;;;;;;;;;9.56;65.16699;101452.1;;;;-80
2022/03/13 02:00:33;;;;;;;;;;;;;;;9.53;65.21777;101443.3;;;;-81
2022/03/13 02:05:37;;;;;;;;;;;;;;;9.49;65.33301;101434.5;;;;-81
2022/03/13 02:08:22;;;;;;;9.8;4.6;;;;;;;;;;;;;-80
2022/03/13 02:10:33;;;;;;;;;;;;;;;9.46;65.17383;101423.6;;;;-79
2022/03/13 02:15:34;;;;;;;;;;;;;;;9.42;65.27734;101426.6;;;;-80
2022/03/13 02:20:33;;;;;;;;;;;;;;;9.39;65.33984;101418.8;;;;-79
2022/03/13 02:25:34;;;;;;;;;;;;;;;9.35;65.3125;101417.4;;;;-80
2022/03/13 02:30:36;;;;;;;;;;;;;;;9.32;65.35156;101419.6;;;;-79
2022/03/13 02:35:34;;;;;;;;;;;;;;;9.29;65.24805;101414.6;;;;-78
2022/03/13 02:38:15;;;;;;;9.1;4.7;;;;;;;;;;;;;-79
2022/03/13 02:40:36;;;;;;;;;;;;;;;9.27;65.21191;101405.4;;;;-80
2022/03/13 02:45:38;;;;;;;;;;;;;;;9.26;65.23242;101400.5;;;;-79
2022/03/13 02:50:35;;;;;;;;;;;;;;;9.25;65.12012;101397.4;;;;-81
2022/03/13 02:55:34;;;;;;;;;;;;;;;9.23;65.0293;101386.6;;;;-79
2022/03/13 03:00:46;;;;;;;;;;;;;;;9.22;65.11523;101386.8;;;;-80
2022/03/13 03:05:35;;;;;;;;;;;;;;;9.18;65.19824;101387.2;;;;-80
2022/03/13 03:08:16;;;;;;;9;4.7;;;;;;;;;;;;;-80
2022/03/13 03:10:33;;;;;;;;;;;;;;;9.15;65.23828;101383.3;;;;-79
2022/03/13 03:15:33;;;;;;;;;;;;;;;9.11;65.28809;101379.9;;;;-80
2022/03/13 03:20:35;;;;;;;;;;;;;;;9.08;65.22852;101380.2;;;;-79
2022/03/13 03:25:35;;;;;;;;;;;;;;;9.06;65.45703;101382.1;;;;-80
2022/03/13 03:30:38;;;;;;;;;;;;;;;9.04;65.38672;101380.2;;;;-80
2022/03/13 03:35:34;;;;;;;;;;;;;;;9.02;65.66211;101383.3;;;;-80
2022/03/13 03:38:16;;;;;;;9.8;4.8;;;;;;;;;;;;;-79
2022/03/13 03:40:34;;;;;;;;;;;;;;;9.01;65.5498;101379.8;;;;-82
2022/03/13 03:45:33;;;;;;;;;;;;;;;8.99;65.66797;101380.6;;;;-79
2022/03/13 03:50:33;;;;;;;;;;;;;;;8.98;65.81055;101379.9;;;;-78
2022/03/13 03:55:39;;;;;;;;;;;;;;;8.96;65.78516;101393;;;;-80
2022/03/13 04:00:43;;;;;;;;;;;;;;;8.97;65.89746;101392.9;;;;-80
2022/03/13 04:05:40;;;;;;;;;;;;;;;8.97;65.93066;101392.1;;;;-80
2022/03/13 04:08:17;;;;;;;9.6;4.3;;;;;;;;;;;;;-80
2022/03/13 04:10:33;;;;;;;;;;;;;;;8.97;65.875;101393.5;;;;-80
2022/03/13 04:15:33;;;;;;;;;;;;;;;8.96;65.98438;101395.9;;;;-81
2022/03/13 04:20:46;;;;;;;;;;;;;;;8.95;65.97266;101396;;;;-82
2022/03/13 04:25:46;;;;;;;;;;;;;;;8.92;66.05566;101399.6;;;;-79
2022/03/13 04:30:39;;;;;;;;;;;;;;;8.89;65.79688;101397.6;;;;-80
2022/03/13 04:35:33;;;;;;;;;;;;;;;8.85;65.82422;101400.8;;;;-78
2022/03/13 04:38:23;;;;;;;6.9;3.6;;;;;;;;;;;;;-82
2022/03/13 04:40:39;;;;;;;;;;;;;;;8.8;65.82715;101400.1;;;;-79
2022/03/13 04:45:35;;;;;;;;;;;;;;;8.76;65.55566;101401.4;;;;-80
2022/03/13 04:50:33;;;;;;;;;;;;;;;8.71;65.66016;101398.9;;;;-79
2022/03/13 04:55:33;;;;;;;;;;;;;;;8.67;66.23926;101398.6;;;;-78
2022/03/13 05:00:37;;;;;;;;;;;;;;;8.62;66.02051;101391.6;;;;-80
2022/03/13 05:05:34;;;;;;;;;;;;;;;8.58;66.03711;101397.1;;;;-77
2022/03/13 05:08:18;;;;;;;7.4;3.9;;;;;;;;;;;;;-80
2022/03/13 05:10:36;;;;;;;;;;;;;;;8.56;66.25586;101394.8;;;;-77
2022/03/13 05:15:36;;;;;;;;;;;;;;;8.55;66.2334;101385.5;;;;-79
2022/03/13 05:20:35;;;;;;;;;;;;;;;8.53;66.3623;101380.5;;;;-79
2022/03/13 05:25:35;;;;;;;;;;;;;;;8.53;66.50586;101385.1;;;;-79
2022/03/13 05:30:33;;;;;;;;;;;;;;;8.54;66.3418;101381.9;;;;-79
2022/03/13 05:35:36;;;;;;;;;;;;;;;8.54;66.35254;101374.9;;;;-80
2022/03/13 05:38:18;;;;;;;9.9;4.8;;;;;;;;;;;;;-79
2022/03/13 05:40:36;;;;;;;;;;;;;;;8.54;66.42969;101378.2;;;;-80
2022/03/13 05:45:38;;;;;;;;;;;;;;;8.55;66.61914;101386.2;;;;-78
2022/03/13 05:50:36;;;;;;;;;;;;;;;8.55;66.64258;101380;;;;-80
2022/03/13 05:55:33;;;;;;;;;;;;;;;8.55;66.6084;101380.6;;;;-81
2022/03/13 06:00:36;;;;;;;;;;;;;;;8.55;66.51953;101388;;;;-78
2022/03/13 06:05:35;;;;;;;;;;;;;;;8.54;66.65137;101389;;;;-80
2022/03/13 06:08:19;;;;;;;12.4;6.3;;;;;;;;;;;;;-80
2022/03/13 06:10:33;;;;;;;;;;;;;;;8.54;66.76172;101385.9;;;;-80
2022/03/13 06:15:34;;;;;;;;;;;;;;;8.53;66.63867;101386.1;;;;-79
2022/03/13 06:20:33;;;;;;;;;;;;;;;8.53;66.5166;101387.7;;;;-80
2022/03/13 06:25:33;;;;;;;;;;;;;;;8.52;66.45898;101397.5;;;;-78
2022/03/13 06:30:34;;;;;;;;;;;;;;;8.52;66.30566;101396.4;;;;-80
2022/03/13 06:35:33;;;;;;;;;;;;;;;8.51;66.37012;101398.6;;;;-80
2022/03/13 06:38:20;;;;;;;14.7;7.4;;;;;;;;;;;;;-79
2022/03/13 06:40:37;;;;;;;;;;;;;;;8.51;66.29297;101400.1;;;;-80
2022/03/13 06:45:35;;;;;;;;;;;;;;;8.5;66.24707;101394.2;;;;-79
2022/03/13 06:50:33;;;;;;;;;;;;;;;8.51;66.07227;101406.1;;;;-77
2022/03/13 06:55:33;;;;;;;;;;;;;;;8.51;66.0498;101410;;;;-79
2022/03/13 07:00:35;;;;;;;;;;;;;;;8.5;65.88281;101409;;;;-81
2022/03/13 07:05:33;;;;;;;;;;;;;;;8.51;65.90625;101408.7;;;;-79
2022/03/13 07:08:20;;;;;;;19.3;9.3;;;;;;;;;;;;;-78
2022/03/13 07:10:33;;;;;;;;;;;;;;;8.5;65.91602;101403;;;;-77
2022/03/13 07:15:36;;;;;;;;;;;;;;;8.51;66.1377;101402;;;;-80
2022/03/13 07:20:35;;;;;;;;;;;;;;;8.53;66.04004;101396.4;;;;-80
2022/03/13 07:25:33;;;;;;;;;;;;;;;8.57;65.90332;101403.2;;;;-81
2022/03/13 07:30:33;;;;;;;;;;;;;;;8.59;65.92773;101406.5;;;;-80
2022/03/13 07:35:33;;;;;;;;;;;;;;;8.62;65.87695;101411.8;;;;-80
2022/03/13 07:40:38;;;;;;;;;;;;;;;8.64;65.8916;101415.9;;;;-78
2022/03/13 07:45:33;;;;;;;;;;;;;;;8.67;65.88477;101417;;;;-80
2022/03/13 07:50:34;;;;;;;;;;;;;;;8.71;65.9248;101417.9;;;;-82
2022/03/13 07:55:33;;;;;;;;;;;;;;;8.79;65.8916;101420.1;;;;-80
2022/03/13 08:00:40;;;;;;;;;;;;;;;8.86;65.68164;101415.8;;;;-79
2022/03/13 08:05:34;;;;;;;;;;;;;;;8.95;65.75098;101417.4;;;;-79
2022/03/13 08:08:25;;;;;;;27.5;10.9;;;;;;;;;;;;;-80
2022/03/13 08:10:33;;;;;;;;;;;;;;;9.05;65.68848;101414.9;;;;-80
2022/03/13 08:15:34;;;;;;;;;;;;;;;9.16;65.47266;101415.6;;;;-79
2022/03/13 08:20:33;;;;;;;;;;;;;;;9.27;65.29102;101413.1;;;;-80
2022/03/13 08:25:34;;;;;;;;;;;;;;;9.39;64.97559;101407.8;;;;-80
2022/03/13 08:30:35;;;;;;;;;;;;;;;9.51;64.57129;101406.3;;;;-79
2022/03/13 08:35:33;;;;;;;;;;;;;;;9.62;64.34277;101407.7;;;;-81
2022/03/13 08:38:22;;;;;;;22.8;10.5;;;;;;;;;;;;;-79
2022/03/13 08:40:33;;;;;;;;;;;;;;;9.72;64.15918;101401.7;;;;-79
2022/03/13 08:45:35;;;;;;;;;;;;;;;9.81;63.90527;101395.9;;;;-80
2022/03/13 08:50:32;;;;;;;;;;;;;;;9.92;63.66602;101391.4;;;;-80
2022/03/13 08:55:35;;;;;;;;;;;;;;;10.02;63.19141;101391.7;;;;-80
2022/03/13 09:00:36;;;;;;;;;;;;;;;10.23;62.97852;101382;;;;-79
2022/03/13 09:05:33;;;;;;;;;;;;;;;10.46;62.62109;101375.1;;;;-79
2022/03/13 09:08:25;;;;;;;21.6;11;;;;;;;;;;;;;-80
2022/03/13 09:10:34;;;;;;;;;;;;;;;10.7;62.16699;101373.4;;;;-75
2022/03/13 09:15:33;;;;;;;;;;;;;;;10.98;61.42773;101373.6;;;;-79
2022/03/13 09:20:33;;;;;;;;;;;;;;;11.23;60.78223;101364.6;;;;-77
2022/03/13 09:25:34;;;;;;;;;;;;;;;11.3;60.10059;101359;;;;-79
2022/03/13 09:30:33;;;;;;;;;;;;;;;11.28;60.14355;101369.4;;;;-80
2022/03/13 09:35:33;;;;;;;;;;;;;;;11.33;60.14941;101374.6;;;;-79
2022/03/13 09:38:23;;;;;;;20;10.6;;;;;;;;;;;;;-79
2022/03/13 09:40:33;;;;;;;;;;;;;;;11.7;60.53613;101373.1;;;;-80
2022/03/13 09:45:35;;;;;;;;;;;;;;;12.17;59.34863;101379.6;;;;-81
2022/03/13 09:50:33;;;;;;;;;;;;;;;12.5;58.30957;101373.3;;;;-79
2022/03/13 09:55:33;;;;;;;;;;;;;;;12.76;57.52734;101370.3;;;;-81
2022/03/13 10:00:34;;;;;;;;;;;;;;;13;56.89746;101366.3;;;;-80
2022/03/13 10:05:43;;;;;;;;;;;;;;;13.19;56.83301;101374.3;;;;-80
2022/03/13 10:08:32;;;;;;;21.5;10.9;;;;;;;;;;;;;-82
2022/03/13 10:10:34;;;;;;;;;;;;;;;13.36;56.62988;101368.1;;;;-81
2022/03/13 10:15:43;;;;;;;;;;;;;;;13.51;55.79785;101365.5;;;;-79
2022/03/13 10:20:41;;;;;;;;;;;;;;;13.67;55.33301;101368;;;;-81
2022/03/13 10:25:38;;;;;;;;;;;;;;;13.78;55.26953;101371.4;;;;-79
2022/03/13 10:30:33;;;;;;;;;;;;;;;13.83;54.41113;101376.7;;;;-78
2022/03/13 10:35:34;;;;;;;;;;;;;;;13.83;55.16309;101375.6;;;;-79
2022/03/13 10:38:27;;;;;;;19.9;10.8;;;;;;;;;;;;;-79
2022/03/13 10:40:36;;;;;;;;;;;;;;;13.87;54.24707;101377.9;;;;-80
2022/03/13 10:50:45;;;;;;;;;;;;;;;14.12;55.52539;101373.1;;;;-77
2022/03/13 10:55:35;;;;;;;;;;;;;;;14.25;54.18262;101364.8;;;;-80
2022/03/13 11:00:35;;;;;;;;;;;;;;;14.34;54.24902;101359.7;;;;-79
2022/03/13 11:05:34;;;;;;;;;;;;;;;14.47;54.27539;101354.8;;;;-80
2022/03/13 11:08:28;;;;;;;18.8;10.8;;;;;;;;;;;;;-80
2022/03/13 11:10:35;;;;;;;;;;;;;;;14.65;55.32227;101349.7;;;;-80
2022/03/13 11:15:36;;;;;;;;;;;;;;;14.87;54.82031;101351;;;;-79
2022/03/13 11:20:33;;;;;;;;;;;;;;;15.03;54.54785;101342.7;;;;-78
2022/03/13 11:25:33;;;;;;;;;;;;;;;15.15;54.86719;101339.6;;;;-80
2022/03/13 11:30:41;;;;;;;;;;;;;;;15.34;54.41699;101328.9;;;;-81
2022/03/13 11:35:37;;;;;;;;;;;;;;;15.49;54.32227;101317.8;;;;-80
2022/03/13 11:38:29;;;;;;;18.7;10.6;;;;;;;;;;;;;-80
2022/03/13 11:40:43;;;;;;;;;;;;;;;15.66;54.38965;101319.2;;;;-80
2022/03/13 11:45:50;;;;;;;;;;;;;;;15.7;53.96582;101308.2;;;;-80
2022/03/13 11:50:48;;;;;;;;;;;;;;;15.75;53.31641;101306.1;;;;-81
2022/03/13 11:55:36;;;;;;;;;;;;;;;15.87;54.33594;101300.3;;;;-81
2022/03/13 12:00:40;;;;;;;;;;;;;;;16.11;55.98047;101299.6;;;;-79
2022/03/13 12:05:37;;;;;;;;;;;;;;;16.35;54.53027;101293.1;;;;-80
2022/03/13 12:08:42;;;;;;;18.1;10.3;;;;;;;;;;;;;-81
2022/03/13 12:10:41;;;;;;;;;;;;;;;16.53;54.64355;101291.1;;;;-82
2022/03/13 12:15:34;;;;;;;;;;;;;;;16.65;55.16699;101280;;;;-81
2022/03/13 12:20:49;;;;;;;;;;;;;;;16.75;53.09863;101271.8;;;;-82
2022/03/13 12:25:34;;;;;;;;;;;;;;;16.84;54.7373;101264.9;;;;-81
2022/03/13 12:30:38;;;;;;;;;;;;;;;17.03;53.7998;101266.3;;;;-80
2022/03/13 12:35:42;;;;;;;;;;;;;;;17.09;54.45215;101258.1;;;;-82
2022/03/13 12:38:42;;;;;;;15.4;9.5;;;;;;;;;;;;;-81
2022/03/13 12:40:33;;;;;;;;;;;;;;;17.07;54.33691;101257.1;;;;-80
2022/03/13 12:45:37;;;;;;;;;;;;;;;17.15;55.77246;101254.8;;;;-81
2022/03/13 12:50:33;;;;;;;;;;;;;;;17.25;55.61523;101248.6;;;;-82
2022/03/13 12:55:35;;;;;;;;;;;;;;;17.25;53.32813;101252;;;;-81
2022/03/13 13:00:43;;;;;;;;;;;;;;;17.24;53.74609;101239.5;;;;-80
2022/03/13 13:05:33;;;;;;;;;;;;;;;17.27;54.70117;101239.9;;;;-81
2022/03/13 13:08:43;;;;;;;15.3;8.7;;;;;;;;;;;;;-81
2022/03/13 13:10:35;;;;;;;;;;;;;;;17.26;54.38281;101237.1;;;;-80
2022/03/13 13:15:36;;;;;;;;;;;;;;;17.22;53.5625;101243.3;;;;-82
2022/03/13 13:20:36;;;;;;;;;;;;;;;17.23;54.90039;101244.8;;;;-79
2022/03/13 13:25:37;;;;;;;;;;;;;;;17.32;55.30762;101243.6;;;;-82
2022/03/13 13:30:35;;;;;;;;;;;;;;;17.38;54.5332;101240.9;;;;-81
2022/03/13 13:35:44;;;;;;;;;;;;;;;17.45;54.74609;101237.4;;;;-82
2022/03/13 13:38:45;;;;;;;15.8;9.1;;;;;;;;;;;;;-82
2022/03/13 13:40:35;;;;;;;;;;;;;;;17.49;53.84375;101240.8;;;;-81
2022/03/13 13:45:44;;;;;;;;;;;;;;;17.56;53.01465;101244.2;;;;-81
2022/03/13 13:50:33;;;;;;;;;;;;;;;17.58;52.31348;101247.5;;;;-82
2022/03/13 13:55:38;;;;;;;;;;;;;;;17.64;53.83887;101243.5;;;;-80
2022/03/13 14:00:36;;;;;;;;;;;;;;;17.69;53.7666;101243.3;;;;-80
2022/03/13 14:05:34;;;;;;;;;;;;;;;17.7;53.01953;101242.5;;;;-81
2022/03/13 14:08:46;;;;;;;14.1;8.8;;;;;;;;;;;;;-82
2022/03/13 14:10:36;;;;;;;;;;;;;;;17.74;53.02344;101241.1;;;;-82
2022/03/13 14:15:34;;;;;;;;;;;;;;;17.66;52.31152;101239.9;;;;-83
2022/03/13 14:20:37;;;;;;;;;;;;;;;17.6;52.38477;101236.1;;;;-81
2022/03/13 14:25:34;;;;;;;;;;;;;;;17.64;51.37988;101244.1;;;;-81
2022/03/13 14:30:41;;;;;;;;;;;;;;;17.66;53.16211;101247.5;;;;-81
2022/03/13 14:35:33;;;;;;;;;;;;;;;17.7;52.49805;101247.4;;;;-82
2022/03/13 14:38:48;;;;;;;12.8;8;;;;;;;;;;;;;-82
2022/03/13 14:40:40;;;;;;;;;;;;;;;17.69;52.34961;101254.7;;;;-81
2022/03/13 14:45:33;;;;;;;;;;;;;;;17.67;52.76758;101249.2;;;;-81
2022/03/13 14:50:36;;;;;;;;;;;;;;;17.7;53.56445;101253.1;;;;-81
2022/03/13 14:55:33;;;;;;;;;;;;;;;17.73;53.0791;101253.2;;;;-80
2022/03/13 15:00:33;;;;;;;;;;;;;;;17.73;53.44336;101260.8;;;;-82
2022/03/13 15:05:35;;;;;;;;;;;;;;;17.67;51.99414;101252.9;;;;-83
2022/03/13 15:08:43;;;;;;;13.2;8;;;;;;;;;;;;;-81
2022/03/13 15:10:33;;;;;;;;;;;;;;;17.61;52.24902;101257.9;;;;-81
2022/03/13 15:15:36;;;;;;;;;;;;;;;17.61;50.77539;101254.6;;;;-82
2022/03/13 15:20:46;;;;;;;;;;;;;;;17.59;51.89551;101251.2;;;;-81
2022/03/13 15:25:35;;;;;;;;;;;;;;;17.52;52.19238;101242.4;;;;-81
2022/03/13 15:30:34;;;;;;;;;;;;;;;17.52;53.55273;101241.8;;;;-83
2022/03/13 15:35:34;;;;;;;;;;;;;;;17.49;53.27734;101239.4;;;;-83
2022/03/13 15:38:48;;;;;;;10.9;6.2;;;;;;;;;;;;;-82
2022/03/13 15:40:33;;;;;;;;;;;;;;;17.48;53.74121;101245.7;;;;-83
2022/03/13 15:45:33;;;;;;;;;;;;;;;17.46;52.39063;101244.3;;;;-81
2022/03/13 15:50:34;;;;;;;;;;;;;;;17.39;51.69141;101240.8;;;;-81
2022/03/13 15:55:36;;;;;;;;;;;;;;;17.33;53.21387;101242.1;;;;-79
2022/03/13 16:00:34;;;;;;;;;;;;;;;17.31;53.84473;101245.5;;;;-81
2022/03/13 16:05:43;;;;;;;;;;;;;;;17.29;53.53516;101248.3;;;;-79
2022/03/13 16:08:50;;;;;;;8;5.4;;;;;;;;;;;;;-81
2022/03/13 16:10:34;;;;;;;;;;;;;;;17.19;53.43359;101247.1;;;;-80
2022/03/13 16:15:35;;;;;;;;;;;;;;;17.09;53.73926;101242.3;;;;-82
2022/03/13 16:20:35;;;;;;;;;;;;;;;16.95;54.28809;101249.5;;;;-83
2022/03/13 16:25:42;;;;;;;;;;;;;;;16.82;54.10254;101253.8;;;;-81
2022/03/13 16:30:33;;;;;;;;;;;;;;;16.69;53.64648;101251.5;;;;-82
2022/03/13 16:35:33;;;;;;;;;;;;;;;16.57;54.12695;101254.5;;;;-82
2022/03/13 16:38:52;;;;;;;11.1;6.5;;;;;;;;;;;;;-80
2022/03/13 16:40:41;;;;;;;;;;;;;;;16.47;54.66797;101261.9;;;;-80
2022/03/13 16:45:33;;;;;;;;;;;;;;;16.37;54.78125;101259.5;;;;-80
2022/03/13 16:50:39;;;;;;;;;;;;;;;16.25;55.14063;101262.7;;;;-80
2022/03/13 16:55:34;;;;;;;;;;;;;;;16.11;55.11133;101261.5;;;;-82
2022/03/13 17:00:35;;;;;;;;;;;;;;;15.97;54.85449;101267.6;;;;-80
2022/03/13 17:05:36;;;;;;;;;;;;;;;15.84;55.39355;101271.6;;;;-81
2022/03/13 17:08:55;;;;;;;13.3;7.6;;;;;;;;;;;;;-81
2022/03/13 17:10:40;;;;;;;;;;;;;;;15.7;55.30664;101276.2;;;;-80
2022/03/13 17:15:33;;;;;;;;;;;;;;;15.52;54.88965;101285;;;;-79
2022/03/13 17:20:49;;;;;;;;;;;;;;;15.34;55.12695;101285.1;;;;-80
2022/03/13 17:25:45;;;;;;;;;;;;;;;15.16;55.17383;101298.8;;;;-81
2022/03/13 17:35:37;;;;;;;;;;;;;;;14.8;55.19434;101305.7;;;;-79
2022/03/13 17:38:59;;;;;;;15.4;8.3;;;;;;;;;;;;;-80
2022/03/13 17:40:41;;;;;;;;;;;;;;;14.62;55.35254;101314.7;;;;-79
2022/03/13 17:45:33;;;;;;;;;;;;;;;14.46;55.41113;101320.4;;;;-82
2022/03/13 17:50:33;;;;;;;;;;;;;;;14.31;55.48242;101320.4;;;;-80
2022/03/13 17:55:37;;;;;;;;;;;;;;;14.16;55.39648;101325.4;;;;-80
2022/03/13 18:00:36;;;;;;;;;;;;;;;14.03;55.69336;101331.8;;;;-80
2022/03/13 18:08:51;;;;;;;;;;;;;;;13.82;56.20605;101338.3;;;;-80
2022/03/13 18:09:19;;;;;;;17.9;8.6;;;;;;;;;;;;;-80
2022/03/13 18:14:00;;;;;;;;;;;;;;;13.71;56.14746;101343.5;;;;-79
2022/03/13 18:18:47;;;;;;;;;;;;;;;13.61;56.3252;101348.5;;;;-80
2022/03/13 18:23:52;;;;;;;;;;;;;;;13.53;56.99902;101357.6;;;;-78
2022/03/13 18:33:51;;;;;;;;;;;;;;;13.39;57.2168;101364.2;;;;-80
2022/03/13 18:38:52;;;;;;;;;;;;;;;13.32;56.9834;101364.1;;;;-80
2022/03/13 18:39:12;;;;;;;15.6;8.3;;;;;;;;;;;;;-80
2022/03/13 18:43:49;;;;;;;;;;;;;;;13.27;57.16699;101365.7;;;;-81
2022/03/13 18:48:49;;;;;;;;;;;;;;;13.21;57.43945;101381.9;;;;-82
2022/03/13 18:53:47;;;;;;;;;;;;;;;13.16;57.58008;101395.3;;;;-80
2022/03/13 18:58:57;;;;;;;;;;;;;;;13.11;57.72949;101396.2;;;;-80
2022/03/13 19:03:52;;;;;;;;;;;;;;;13.07;57.65625;101401.3;;;;-81
2022/03/13 19:09:08;;;;;;;;;;;;;;;13.02;57.44824;101405;;;;-83
2022/03/13 19:09:20;;;;;;;17;8.6;;;;;;;;;;;;;-83
2022/03/13 19:13:55;;;;;;;;;;;;;;;12.98;57.71289;101412.1;;;;-81
2022/03/13 19:18:54;;;;;;;;;;;;;;;12.93;57.85059;101421.2;;;;-82
2022/03/13 19:23:47;;;;;;;;;;;;;;;12.89;57.82227;101421.4;;;;-80
2022/03/13 19:28:54;;;;;;;;;;;;;;;12.84;58.01758;101422.5;;;;-80
2022/03/13 19:33:47;;;;;;;;;;;;;;;12.81;57.99219;101434.9;;;;-79
2022/03/13 19:38:56;;;;;;;;;;;;;;;12.77;57.85254;101435.1;;;;-79
2022/03/13 19:39:06;;;;;;;18;9.1;;;;;;;;;;;;;-79
2022/03/13 19:43:48;;;;;;;;;;;;;;;12.74;57.9502;101446.7;;;;-79
2022/03/13 19:48:51;;;;;;;;;;;;;;;12.7;58.16797;101439.2;;;;-77
2022/03/13 19:53:51;;;;;;;;;;;;;;;12.66;58.21777;101445.8;;;;-78
2022/03/13 19:58:47;;;;;;;;;;;;;;;12.62;58.20313;101451.3;;;;-79
2022/03/13 20:03:47;;;;;;;;;;;;;;;12.56;58.33984;101454.3;;;;-81
2022/03/13 20:09:05;;;;;;;;;;;;;;;12.55;58.52734;101454.8;;;;-81
2022/03/13 20:09:27;;;;;;;15.1;8.1;;;;;;;;;;;;;-81
2022/03/13 20:13:51;;;;;;;;;;;;;;;12.52;58.61328;101461.6;;;;-79
2022/03/13 20:18:50;;;;;;;;;;;;;;;12.48;58.74219;101457.1;;;;-80
2022/03/13 20:23:59;;;;;;;;;;;;;;;12.45;58.66016;101462.4;;;;-79
2022/03/13 20:29:00;;;;;;;;;;;;;;;12.41;58.78906;101466;;;;-80
2022/03/13 20:34:01;;;;;;;;;;;;;;;12.37;58.87402;101471.4;;;;-81
2022/03/13 20:38:47;;;;;;;;;;;;;;;12.34;58.94824;101484.9;;;;-81
2022/03/13 20:39:03;;;;;;;12.4;6.9;;;;;;;;;;;;;-79
2022/03/13 20:43:50;;;;;;;;;;;;;;;12.3;59.10938;101492.9;;;;-82
2022/03/13 20:48:47;;;;;;;;;;;;;;;12.27;59.21777;101500.6;;;;-80
2022/03/13 20:53:58;;;;;;;;;;;;;;;12.23;59.32324;101505.6;;;;-81
2022/03/13 20:58:47;;;;;;;;;;;;;;;12.18;59.38281;101512.5;;;;-78
2022/03/13 21:03:48;;;;;;;;;;;;;;;12.13;59.52246;101522.7;;;;-80
2022/03/13 21:08:52;;;;;;;;;;;;;;;12.08;59.57031;101528.3;;;;-81
2022/03/13 21:09:03;;;;;;;12.1;6;;;;;;;;;;;;;-79
2022/03/13 21:13:47;;;;;;;;;;;;;;;12.02;59.79883;101542.3;;;;-79
2022/03/13 21:18:47;;;;;;;;;;;;;;;11.97;59.87988;101548.1;;;;-80
2022/03/13 21:23:47;;;;;;;;;;;;;;;11.91;60.02832;101554.8;;;;-80
2022/03/13 21:28:47;;;;;;;;;;;;;;;11.85;60.38965;101565.5;;;;-80
2022/03/13 21:33:47;;;;;;;;;;;;;;;11.81;60.69434;101571.2;;;;-80
2022/03/13 21:38:48;;;;;;;;;;;;;;;11.77;60.67969;101582.6;;;;-80
2022/03/13 21:39:05;;;;;;;8.7;4.1;;;;;;;;;;;;;-79
2022/03/13 21:43:49;;;;;;;;;;;;;;;11.73;60.53906;101587.7;;;;-80
2022/03/13 21:48:46;;;;;;;;;;;;;;;11.7;60.5918;101592.9;;;;-82
2022/03/13 21:54:01;;;;;;;;;;;;;;;11.66;60.85449;101604.4;;;;-80
2022/03/13 21:58:59;;;;;;;;;;;;;;;11.63;60.97168;101607.6;;;;-79
2022/03/13 22:03:47;;;;;;;;;;;;;;;11.6;61.0459;101616.3;;;;-79
2022/03/13 22:08:51;;;;;;;;;;;;;;;11.55;61.2627;101620.3;;;;-81
2022/03/13 22:09:13;;;;;;;5.5;3;;;;;;;;;;;;;-78
2022/03/13 22:18:48;;;;;;;;;;;;;;;11.48;61.43066;101634.6;;;;-79
2022/03/13 22:23:47;;;;;;;;;;;;;;;11.43;61.60352;101636.9;;;;-80
2022/03/13 22:28:50;;;;;;;;;;;;;;;11.39;61.55176;101640.6;;;;-80
2022/03/13 22:33:47;;;;;;;;;;;;;;;11.35;61.85938;101636;;;;-79
2022/03/13 22:38:48;;;;;;;;;;;;;;;11.3;61.58398;101636.8;;;;-81
2022/03/13 22:39:08;;;;;;;4.9;2.9;;;;;;;;;;;;;-80
2022/03/13 22:43:47;;;;;;;;;;;;;;;11.25;61.91113;101642.9;;;;-80
2022/03/13 22:48:53;;;;;;;;;;;;;;;11.21;61.92773;101648.3;;;;-81
2022/03/13 22:53:47;;;;;;;;;;;;;;;11.16;61.93066;101645.9;;;;-80
2022/03/13 22:58:48;;;;;;;;;;;;;;;11.1;61.39941;101646.9;;;;-79
2022/03/13 23:03:55;;;;;;;;;;;;;;;11.02;61.02051;101650.2;;;;-80
2022/03/13 23:08:47;;;;;;;;;;;;;;;10.93;61.18555;101652.4;;;;-81
2022/03/13 23:09:08;;;;;;;5;2.6;;;;;;;;;;;;;-81
2022/03/13 23:13:52;;;;;;;;;;;;;;;10.84;61.35156;101656.2;;;;-80
2022/03/13 23:18:47;;;;;;;;;;;;;;;10.78;61.51074;101665.1;;;;-80
2022/03/13 23:23:50;;;;;;;;;;;;;;;10.75;61.84082;101669.8;;;;-80
2022/03/13 23:28:50;;;;;;;;;;;;;;;10.72;61.71484;101676.9;;;;-80
2022/03/13 23:33:50;;;;;;;;;;;;;;;10.69;61.78613;101674.8;;;;-81
2022/03/13 23:38:48;;;;;;;;;;;;;;;10.66;61.92773;101676.1;;;;-81
2022/03/13 23:39:10;;;;;;;4.1;2.5;;;;;;;;;;;;;-80
2022/03/13 23:43:47;;;;;;;;;;;;;;;10.64;62.91602;101689.6;;;;-81
2022/03/13 23:48:48;;;;;;;;;;;;;;;10.62;62.59082;101693.1;;;;-82
2022/03/13 23:53:46;;;;;;;;;;;;;;;10.6;62.67676;101697.1;;;;-82
2022/03/13 23:58:53;;;;;;;;;;;;;;;10.59;62.39648;101701.4;;;;-81
